Illora, Spain
Current Conditions -  °F | °C
As of 10:00 PM on Sunday 23 Nov 2014 (Local Time) from LEGR Reporting Station
Broken Clouds Broken Clouds  
Wind Chill: 63°   Ceiling: 10000
Heat Index: 63°   Visibility: 6mi
Dew Point: 50°   Wind: 3mph
Humidity: 63%   Direction: 70°ENE
Pressure: 29.91"   Gusts: NA
Location:  37.29°N, 3.88°W
Report Text: LEGR 232100Z 07003KT 9999 FEW060 BKN100 17/10 Q1013
Loading
Personal Weather Stations






























Interactive Weather Map New forecast layout! Learn more

10-Day Weather Forecast

Advertisements
Track Severe Weather on mobile